Aérodrome :
LOGIN :

S'inscrire | Disclaimer

   EN    FR    IT 

 










Légende :    VFR   VFR Marginal   IFR   IFR Intensif   IFR Très Intensif
Visi : 
Plafond : 
>= 8 km
>= 3000ft
5 à 8 km
1000 à 3000 ft
1500m à 5 km
500 à 1000 ft
800 à 1500m
200 à 500 ft
< 800m
< 200 ft
Symboles :   Orages  Brouillard  Fortes neiges  Fortes précipitations  Vent > 20 kt
SIGMETs :   Divers  Orages  Givrage  Turbulence  Onde Orograph.  Cendres Volcan.







- Altitude de l'aérodrome : 458 ft
- Voir les cartes d'approche


LFSI - St-Dizier

DERNIER METAR :
  • 202030Z AUTO 32005KT 9000 FEW005 OVC011 08/08 Q1001

METARs EXPIRÉS :
  • 202000Z AUTO 28003KT 240V310 9000 BKN010/// OVC016/// ///CB 08/08 Q1000
  • 201930Z AUTO 28006KT 9999 OVC007 08/08 Q1000
  • 201900Z AUTO 30007KT 5000 -RA BR OVC005/// ///TCU 08/08 Q1000
  • 201830Z AUTO 29006KT 5000 -RADZ BR OVC010 08/08 Q1000
  • 201800Z AUTO 28007KT 9999 OVC010 09/08 Q1000

TAF TAF LFSI
Valide du 20 à 21h jusqu'au 21 à 21h UTC


202000Z 2021/2121 30005KT 8000 BKN010
TEMPO 2101/2110 3000 BR BKN004
BECMG 2112/2114 19010KT BKN020
TEMPO 2116/2121 2000 RA BKN005
Pas de NOTAMs connus pour ce terrain.
2 SIGMETs publiés pour la FIR Paris (LFFF) :
 
Turbulence forte
LFFF SIGMET 8 VALID 202100/210100 LFPW
LFFF PARIS FIR/UIR SEV TURB FCST NE OF LINE N5100 E00145 - N4815 E00530 FL180/290 MOV NE 20KT NC=
Turbulence forte
LFFF SIGMET 7 VALID 201700/202100 LFPW
LFFF PARIS FIR/UIR SEV TURB FCST NE OF LINE N4815 E00515 - N5045 E00100 FL180/310 MOV NE 15KT NC=



MET'MAP, la Météo Aéronautique d'un coup d'oeil ! - Copyright ORBIFLY Décembre 2007 - Disclaimer

ORBIFLY MET'MAP TEAM :

Programmation & Développement : Alexandra Zaïnal
Conception & Développement : Baudouin d'Aumeries
Co-Programmation & Développement : Marc-Olivier Méhu
Soutien technique & logistique : Manuel Goepfert

Contact : metmap@orbifly.com




SOURCES & CREDITS :

   NOAA